createdAt,value
2023-03-11T00:00:52.732Z,0.00
2023-03-11T00:01:52.960Z,0.00
2023-03-11T00:02:53.032Z,0.00
2023-03-11T00:03:53.182Z,0.00
2023-03-11T00:04:54.225Z,0.00
2023-03-11T00:05:53.526Z,0.00
2023-03-11T00:06:53.696Z,0.00
2023-03-11T00:07:53.879Z,0.00
2023-03-11T00:08:54.545Z,0.00
2023-03-11T00:09:54.183Z,0.00
2023-03-11T00:10:55.217Z,0.00
2023-03-11T00:11:55.240Z,0.00
2023-03-11T00:12:54.658Z,0.00
2023-03-11T00:13:55.236Z,0.00
2023-03-11T00:14:56.685Z,0.00
2023-03-11T00:15:55.184Z,0.00
2023-03-11T00:16:55.417Z,0.00
2023-03-11T00:17:55.604Z,0.00
2023-03-11T00:18:55.810Z,0.00
2023-03-11T00:19:56.729Z,0.00
2023-03-11T00:20:56.132Z,0.00
2023-03-11T00:21:56.300Z,0.00
2023-03-11T00:22:57.226Z,0.00
2023-03-11T00:23:56.649Z,0.00
2023-03-11T00:24:56.791Z,0.00
2023-03-11T00:25:56.932Z,0.00
2023-03-11T00:26:57.097Z,0.00
2023-03-11T00:27:58.694Z,0.00
2023-03-11T00:28:57.490Z,0.00
2023-03-11T00:29:57.663Z,0.00
2023-03-11T00:30:57.860Z,0.00
2023-03-11T00:31:57.972Z,0.00
2023-03-11T00:32:58.127Z,0.00
2023-03-11T00:33:59.183Z,0.00
2023-03-11T00:34:58.442Z,0.00
2023-03-11T00:35:58.756Z,0.00
2023-03-11T00:36:58.834Z,0.00
2023-03-11T00:37:58.947Z,0.00
2023-03-11T00:38:59.757Z,0.00
2023-03-11T00:39:59.316Z,0.00
2023-03-11T00:40:59.462Z,0.00
2023-03-11T00:42:00.178Z,0.00
2023-03-11T00:42:59.820Z,0.00
2023-03-11T00:44:00.006Z,0.00
2023-03-11T00:45:00.726Z,0.00
2023-03-11T00:46:00.794Z,0.00
2023-03-11T00:47:01.186Z,0.00
2023-03-11T00:48:00.736Z,0.00
2023-03-11T00:49:00.910Z,0.00
2023-03-11T00:50:01.055Z,0.00
2023-03-11T00:51:01.233Z,0.00
2023-03-11T00:52:02.197Z,0.00
2023-03-11T00:53:01.594Z,0.00
2023-03-11T00:54:01.774Z,0.00
2023-03-11T00:55:01.945Z,0.00
2023-03-11T00:56:02.113Z,0.00
2023-03-11T00:57:03.186Z,0.00
2023-03-11T00:58:02.426Z,0.00
2023-03-11T00:59:02.581Z,0.00
2023-03-11T01:00:03.242Z,0.00
2023-03-11T01:01:03.262Z,0.00
2023-03-11T01:02:03.049Z,0.00
2023-03-11T01:03:03.244Z,0.00
2023-03-11T01:04:03.424Z,0.00
2023-03-11T01:05:04.226Z,0.00
2023-03-11T01:06:03.792Z,0.00
2023-03-11T01:07:04.687Z,0.00
2023-03-11T01:08:04.188Z,0.00
2023-03-11T01:09:05.232Z,0.00
2023-03-11T01:10:04.755Z,0.00
2023-03-11T01:11:04.754Z,0.00
2023-03-11T01:12:05.741Z,0.00
2023-03-11T01:13:04.977Z,0.00
2023-03-11T01:14:05.130Z,0.00
2023-03-11T01:15:06.696Z,0.00
2023-03-11T01:16:06.109Z,0.00
2023-03-11T01:17:06.207Z,0.00
2023-03-11T01:18:06.687Z,0.00
2023-03-11T01:19:06.742Z,0.00
2023-03-11T01:20:07.232Z,0.00
2023-03-11T01:21:06.515Z,0.00
2023-03-11T01:22:06.662Z,0.00
2023-03-11T01:23:06.836Z,0.00
2023-03-11T01:24:07.020Z,0.00
2023-03-11T01:25:07.203Z,0.00
2023-03-11T01:26:07.375Z,0.00
2023-03-11T01:27:07.560Z,0.00
2023-03-11T01:28:07.777Z,0.00
2023-03-11T01:29:08.752Z,0.00
2023-03-11T01:30:08.184Z,0.00
2023-03-11T01:31:09.238Z,0.00
2023-03-11T01:32:08.441Z,0.00
2023-03-11T01:33:10.208Z,0.00
2023-03-11T01:34:09.734Z,0.00
2023-03-11T01:35:08.991Z,0.00
2023-03-11T01:36:09.180Z,0.00
2023-03-11T01:37:09.312Z,0.00
2023-03-11T01:38:09.513Z,0.00
2023-03-11T01:39:09.744Z,0.00
2023-03-11T01:40:09.908Z,0.00
2023-03-11T01:41:10.096Z,0.00
2023-03-11T01:42:10.272Z,0.00
2023-03-11T01:43:10.423Z,0.00
2023-03-11T01:44:10.615Z,0.00
2023-03-11T01:45:11.242Z,0.00
2023-03-11T01:46:11.034Z,0.00
2023-03-11T01:47:11.208Z,0.00
2023-03-11T01:48:11.414Z,0.00
2023-03-11T01:49:11.604Z,0.00
2023-03-11T01:50:12.720Z,0.00
2023-03-11T01:51:12.695Z,0.00
2023-03-11T01:52:12.116Z,0.00
2023-03-11T01:53:12.299Z,0.00
2023-03-11T01:54:12.765Z,0.00
2023-03-11T01:55:12.707Z,0.00
2023-03-11T01:56:12.881Z,0.00
2023-03-11T01:57:13.066Z,0.00
2023-03-11T01:58:13.242Z,0.00
2023-03-11T01:59:14.237Z,0.00
2023-03-11T02:00:13.805Z,0.00
2023-03-11T02:01:13.851Z,0.00
2023-03-11T02:02:14.030Z,0.00
2023-03-11T02:03:14.245Z,0.00
2023-03-11T02:04:14.368Z,0.00
2023-03-11T02:05:14.565Z,0.00
2023-03-11T02:06:14.733Z,0.00
2023-03-11T02:07:14.911Z,0.00
2023-03-11T02:08:15.090Z,0.00
2023-03-11T02:09:17.154Z,0.00
2023-03-11T02:10:15.376Z,0.00
2023-03-11T02:11:15.542Z,0.00
2023-03-11T02:12:16.202Z,0.00
2023-03-11T02:13:15.845Z,0.00
2023-03-11T02:14:16.000Z,0.00
2023-03-11T02:15:16.177Z,0.00
2023-03-11T02:16:16.408Z,0.00
2023-03-11T02:17:16.463Z,0.00
2023-03-11T02:18:17.250Z,0.00
2023-03-11T02:19:16.738Z,0.00
2023-03-11T02:20:16.928Z,0.00
2023-03-11T02:21:17.706Z,0.00
2023-03-11T02:22:17.234Z,0.00
2023-03-11T02:23:18.217Z,0.00
2023-03-11T02:24:17.650Z,0.00
2023-03-11T02:25:17.766Z,0.00
2023-03-11T02:26:17.979Z,0.00
2023-03-11T02:27:18.723Z,0.00
2023-03-11T02:28:18.330Z,0.00
2023-03-11T02:29:18.491Z,0.00
2023-03-11T02:30:18.637Z,0.00
2023-03-11T02:31:18.816Z,0.00
2023-03-11T02:32:19.784Z,0.00
2023-03-11T02:33:19.164Z,0.00
2023-03-11T02:34:21.255Z,0.00
2023-03-11T02:35:20.201Z,0.00
2023-03-11T02:36:20.221Z,0.00
2023-03-11T02:37:20.715Z,0.00
2023-03-11T02:38:20.101Z,0.00
2023-03-11T02:39:20.264Z,0.00
2023-03-11T02:40:20.420Z,0.00
2023-03-11T02:41:20.585Z,0.00
2023-03-11T02:42:20.748Z,0.00
2023-03-11T02:43:20.955Z,0.00
2023-03-11T02:44:21.091Z,0.00
2023-03-11T02:45:22.706Z,0.00
2023-03-11T02:46:21.462Z,0.00
2023-03-11T02:47:21.644Z,0.00
2023-03-11T02:48:21.812Z,0.00
2023-03-11T02:49:22.754Z,0.00
2023-03-11T02:50:22.721Z,0.00
2023-03-11T02:51:24.202Z,0.00
2023-03-11T02:52:22.556Z,0.00
2023-03-11T02:53:22.701Z,0.00
2023-03-11T02:54:23.708Z,0.00
2023-03-11T02:55:23.108Z,0.00
2023-03-11T02:56:23.317Z,0.00
2023-03-11T02:57:23.503Z,0.00
2023-03-11T02:58:23.664Z,0.00
2023-03-11T02:59:23.817Z,0.00
2023-03-11T03:00:24.004Z,0.00
2023-03-11T03:01:24.176Z,0.00
2023-03-11T03:02:25.326Z,0.00
2023-03-11T03:03:24.471Z,0.00
2023-03-11T03:04:24.766Z,0.00
2023-03-11T03:05:24.860Z,0.00
2023-03-11T03:06:25.717Z,0.00
2023-03-11T03:07:25.224Z,0.00
2023-03-11T03:08:25.760Z,0.00
2023-03-11T03:09:25.568Z,0.00
2023-03-11T03:10:26.712Z,0.00
2023-03-11T03:11:26.706Z,0.00
2023-03-11T03:12:26.712Z,0.00
2023-03-11T03:13:26.241Z,0.00
2023-03-11T03:14:26.410Z,0.00
2023-03-11T03:15:26.586Z,0.00
2023-03-11T03:16:27.790Z,0.00
2023-03-11T03:17:27.616Z,0.00
2023-03-11T03:18:27.152Z,0.00
2023-03-11T03:19:27.326Z,0.00
2023-03-11T03:20:27.497Z,0.00
2023-03-11T03:21:27.802Z,0.00
2023-03-11T03:22:27.827Z,0.00
2023-03-11T03:23:27.959Z,0.00
2023-03-11T03:24:28.075Z,0.00
2023-03-11T03:25:28.219Z,0.00
2023-03-11T03:26:28.773Z,0.00
2023-03-11T03:27:28.547Z,0.00
2023-03-11T03:28:29.210Z,0.00
2023-03-11T03:29:28.842Z,0.00
2023-03-11T03:30:30.708Z,0.00
2023-03-11T03:31:30.250Z,0.00
2023-03-11T03:32:29.434Z,0.00
2023-03-11T03:33:29.531Z,0.00
2023-03-11T03:34:31.206Z,0.00
2023-03-11T03:35:29.826Z,0.00
2023-03-11T03:36:30.713Z,0.00
2023-03-11T03:37:30.113Z,0.00
2023-03-11T03:38:32.213Z,0.00
2023-03-11T03:39:30.852Z,0.00
2023-03-11T03:40:32.744Z,0.00
2023-03-11T03:41:30.849Z,0.00
2023-03-11T03:42:31.010Z,0.00
2023-03-11T03:43:31.164Z,0.00
2023-03-11T03:44:31.318Z,0.00
2023-03-11T03:45:33.342Z,0.00
2023-03-11T03:46:32.713Z,0.00
2023-03-11T03:47:31.958Z,0.00
2023-03-11T03:48:32.126Z,0.00
2023-03-11T03:49:32.303Z,0.00
2023-03-11T03:50:34.245Z,0.00
2023-03-11T03:51:33.261Z,0.00
2023-03-11T03:52:33.263Z,0.00
2023-03-11T03:53:33.715Z,0.00
2023-03-11T03:54:33.715Z,0.00
2023-03-11T03:55:33.256Z,0.00
2023-03-11T03:56:35.223Z,0.00
2023-03-11T03:57:34.229Z,0.00
2023-03-11T03:58:33.769Z,0.00
2023-03-11T03:59:34.770Z,0.00
2023-03-11T04:00:34.059Z,0.00
2023-03-11T04:01:34.245Z,0.00
2023-03-11T04:02:34.517Z,0.00
2023-03-11T04:03:34.642Z,0.00
2023-03-11T04:04:34.727Z,0.00
2023-03-11T04:05:34.922Z,0.00
2023-03-11T04:06:35.158Z,0.00
2023-03-11T04:07:35.350Z,0.00
2023-03-11T04:08:35.566Z,0.00
2023-03-11T04:09:35.762Z,0.00
2023-03-11T04:10:35.980Z,0.00
2023-03-11T04:11:36.183Z,0.00
2023-03-11T04:12:37.229Z,0.00
2023-03-11T04:13:36.520Z,0.00
2023-03-11T04:14:36.707Z,0.00
2023-03-11T04:15:36.934Z,0.00
2023-03-11T04:16:37.162Z,0.00
2023-03-11T04:17:37.374Z,0.00
2023-03-11T04:18:38.233Z,0.00
2023-03-11T04:19:37.794Z,0.00
2023-03-11T04:20:38.301Z,0.00
2023-03-11T04:21:38.728Z,0.00
2023-03-11T04:22:39.240Z,0.00
2023-03-11T04:23:38.389Z,0.00
2023-03-11T04:24:38.609Z,0.00
2023-03-11T04:25:38.818Z,0.00
2023-03-11T04:26:39.765Z,0.00
2023-03-11T04:27:39.171Z,0.00
2023-03-11T04:29:01.259Z,0.00
2023-03-11T04:29:39.505Z,0.00
2023-03-11T04:30:39.762Z,0.00
2023-03-11T04:31:43.222Z,0.00
2023-03-11T04:32:40.059Z,0.00
2023-03-11T04:33:40.168Z,0.00
2023-03-11T04:34:41.229Z,0.00
2023-03-11T04:35:42.127Z,0.00
2023-03-11T04:36:40.629Z,0.00
2023-03-11T04:37:41.591Z,0.00
2023-03-11T04:38:40.990Z,0.00
2023-03-11T04:39:41.726Z,0.00
2023-03-11T04:40:41.382Z,0.00
2023-03-11T04:41:42.543Z,0.00
2023-03-11T04:42:41.723Z,0.00
2023-03-11T04:43:42.792Z,0.00
2023-03-11T04:44:42.124Z,0.00
2023-03-11T04:45:42.318Z,0.00
2023-03-11T04:46:42.568Z,0.00
2023-03-11T04:47:42.801Z,0.00
2023-03-11T04:48:42.865Z,0.00
2023-03-11T04:49:43.113Z,0.00
2023-03-11T04:50:44.720Z,0.00
2023-03-11T04:51:44.217Z,0.00
2023-03-11T04:52:43.658Z,0.00
2023-03-11T04:53:43.854Z,0.00
2023-03-11T04:54:44.015Z,0.00
2023-03-11T04:55:44.213Z,0.00
2023-03-11T04:56:44.379Z,0.00
2023-03-11T04:57:44.554Z,0.00
2023-03-11T04:58:44.751Z,0.00
2023-03-11T04:59:44.938Z,0.00
2023-03-11T05:00:46.717Z,0.00
2023-03-11T05:01:45.376Z,0.00
2023-03-11T05:02:47.103Z,0.00
2023-03-11T05:03:45.720Z,0.00
2023-03-11T05:04:46.728Z,0.00
2023-03-11T05:05:46.028Z,0.00
2023-03-11T05:06:46.221Z,0.00
2023-03-11T05:07:46.405Z,0.00
2023-03-11T05:08:47.220Z,0.00
2023-03-11T05:09:46.779Z,0.00
2023-03-11T05:10:46.983Z,0.00
2023-03-11T05:11:47.728Z,0.00
2023-03-11T05:12:47.390Z,0.00
2023-03-11T05:13:48.270Z,0.00
2023-03-11T05:14:47.798Z,0.00
2023-03-11T05:15:48.306Z,0.00
2023-03-11T05:16:48.129Z,0.00
2023-03-11T05:17:48.294Z,0.00
2023-03-11T05:18:48.469Z,0.00
2023-03-11T05:19:48.644Z,0.00
2023-03-11T05:20:48.807Z,0.00
2023-03-11T05:21:48.970Z,0.00
2023-03-11T05:22:49.769Z,0.00
2023-03-11T05:23:49.287Z,4.00
2023-03-11T05:24:49.442Z,0.00
2023-03-11T05:25:49.601Z,0.00
2023-03-11T05:26:50.735Z,4.00
2023-03-11T05:27:50.037Z,4.00
2023-03-11T05:28:50.203Z,4.00
2023-03-11T05:29:51.272Z,4.00
2023-03-11T05:30:50.554Z,4.00
2023-03-11T05:31:50.695Z,8.00
2023-03-11T05:32:50.916Z,8.00
2023-03-11T05:33:51.726Z,12.00
2023-03-11T05:34:51.248Z,12.00
2023-03-11T05:35:51.370Z,16.00
2023-03-11T05:36:51.555Z,20.00
2023-03-11T05:37:51.703Z,20.00
2023-03-11T05:38:52.779Z,24.00
2023-03-11T05:39:52.020Z,32.00
2023-03-11T05:40:52.286Z,40.00
2023-03-11T05:41:53.281Z,48.00
2023-03-11T05:42:52.531Z,56.00
2023-03-11T05:43:53.279Z,64.00
2023-03-11T05:44:52.956Z,72.00
2023-03-11T05:45:53.781Z,84.00
2023-03-11T05:46:54.312Z,92.00
2023-03-11T05:47:53.476Z,104.00
2023-03-11T05:48:53.643Z,116.00
2023-03-11T05:49:54.782Z,124.00
2023-03-11T05:50:54.734Z,132.00
2023-03-11T05:51:55.622Z,140.00
2023-03-11T05:52:54.395Z,148.00
2023-03-11T05:53:54.548Z,148.00
2023-03-11T05:54:55.277Z,152.00
2023-03-11T05:55:55.149Z,160.00
2023-03-11T05:56:55.070Z,164.00
2023-03-11T05:57:56.110Z,172.00
2023-03-11T05:58:56.100Z,180.00
2023-03-11T05:59:55.514Z,192.00
2023-03-11T06:00:55.743Z,208.00
2023-03-11T06:01:58.266Z,220.00
2023-03-11T06:02:57.102Z,232.00
2023-03-11T06:03:57.382Z,248.00
2023-03-11T06:04:56.649Z,268.00
2023-03-11T06:05:56.680Z,284.00
2023-03-11T06:06:56.872Z,304.00
2023-03-11T06:07:57.060Z,320.00
2023-03-11T06:08:57.217Z,344.00
2023-03-11T06:09:57.776Z,372.00
2023-03-11T06:10:59.285Z,396.00
2023-03-11T06:11:57.770Z,428.00
2023-03-11T06:12:58.740Z,452.00
2023-03-11T06:13:58.117Z,496.00
2023-03-11T06:14:58.324Z,556.00
2023-03-11T06:15:59.253Z,624.00
2023-03-11T06:16:59.281Z,676.00
2023-03-11T06:17:58.796Z,732.00
2023-03-11T06:18:58.925Z,780.00
2023-03-11T06:19:59.064Z,812.00
2023-03-11T06:20:59.295Z,832.00
2023-03-11T06:21:59.449Z,868.00
2023-03-11T06:22:59.602Z,928.00
2023-03-11T06:24:00.292Z,1008.00
2023-03-11T06:25:00.807Z,1068.00
2023-03-11T06:26:00.091Z,1112.00
2023-03-11T06:27:00.224Z,1164.00
2023-03-11T06:28:00.378Z,1236.00
2023-03-11T06:29:01.262Z,1308.00
2023-03-11T06:30:00.744Z,1376.00
2023-03-11T06:31:01.297Z,1412.00
2023-03-11T06:32:01.052Z,1460.00
2023-03-11T06:33:01.745Z,1500.00
2023-03-11T06:34:01.361Z,1532.00
2023-03-11T06:35:01.512Z,1576.00
2023-03-11T06:36:02.472Z,1604.00
2023-03-11T06:37:03.246Z,1644.00
2023-03-11T06:38:02.788Z,1704.00
2023-03-11T06:39:03.708Z,1772.00
2023-03-11T06:40:03.281Z,1812.00
2023-03-11T06:41:03.286Z,1756.00
2023-03-11T06:42:02.683Z,1632.00
2023-03-11T06:43:02.823Z,1556.00
2023-03-11T06:44:03.068Z,1656.00
2023-03-11T06:45:03.751Z,1720.00
2023-03-11T06:46:04.306Z,1768.00
2023-03-11T06:47:03.610Z,1944.00
2023-03-11T06:48:04.294Z,2140.00
2023-03-11T06:49:03.961Z,2192.00
2023-03-11T06:50:04.128Z,2188.00
2023-03-11T06:51:04.257Z,2260.00
2023-03-11T06:52:04.418Z,2268.00
2023-03-11T06:53:04.596Z,2172.00
2023-03-11T06:54:04.746Z,2076.00
2023-03-11T06:55:04.883Z,2000.00
2023-03-11T06:56:05.755Z,2036.00
2023-03-11T06:57:05.237Z,2160.00
2023-03-11T06:58:05.414Z,2248.00
2023-03-11T06:59:05.554Z,2372.00
2023-03-11T07:00:05.713Z,2524.00
2023-03-11T07:01:05.908Z,2708.00
2023-03-11T07:02:06.060Z,2912.00
2023-03-11T07:03:06.236Z,3204.00
2023-03-11T07:04:06.449Z,3396.00
2023-03-11T07:05:06.616Z,3620.00
2023-03-11T07:06:27.765Z,3900.00
2023-03-11T07:07:08.747Z,4092.00
2023-03-11T07:08:07.229Z,4460.00
2023-03-11T07:09:07.396Z,5112.00
2023-03-11T07:10:09.243Z,6052.00
2023-03-11T07:11:07.751Z,8596.00
2023-03-11T07:12:08.794Z,62592.00
2023-03-11T07:13:08.753Z,31936.00
2023-03-11T07:14:09.240Z,17664.00
2023-03-11T07:15:09.752Z,13124.00
2023-03-11T07:16:09.296Z,12564.00
2023-03-11T07:17:09.814Z,50432.00
2023-03-11T07:18:09.788Z,46656.00
2023-03-11T07:19:09.207Z,65536.00
2023-03-11T07:20:10.249Z,68736.00
2023-03-11T07:21:09.489Z,30080.00
2023-03-11T07:22:09.683Z,18464.00
2023-03-11T07:23:10.613Z,16640.00
2023-03-11T07:24:12.248Z,11276.00
2023-03-11T07:25:11.255Z,10496.00
2023-03-11T07:26:10.817Z,10720.00
2023-03-11T07:27:10.463Z,10992.00
2023-03-11T07:28:11.290Z,10256.00
2023-03-11T07:29:12.768Z,10052.00
2023-03-11T07:30:11.035Z,10120.00
2023-03-11T07:31:11.795Z,10696.00
2023-03-11T07:32:12.337Z,10476.00
2023-03-11T07:33:12.298Z,12524.00
2023-03-11T07:34:12.820Z,31936.00
2023-03-11T07:35:11.988Z,41312.00
2023-03-11T07:36:12.182Z,66912.00
2023-03-11T07:37:12.336Z,25664.00
2023-03-11T07:38:12.533Z,13004.00
2023-03-11T07:39:12.685Z,12360.00
2023-03-11T07:40:12.841Z,14656.00
2023-03-11T07:41:13.024Z,16388.00
2023-03-11T07:42:13.243Z,14864.00
2023-03-11T07:43:13.394Z,13520.00
2023-03-11T07:44:14.309Z,49568.00
2023-03-11T07:45:15.345Z,71424.00
2023-03-11T07:46:15.233Z,85984.00
2023-03-11T07:47:14.147Z,87488.00
2023-03-11T07:48:14.184Z,87872.00
2023-03-11T07:49:16.610Z,77536.00
2023-03-11T07:50:14.644Z,56736.00
2023-03-11T07:51:14.852Z,37728.00
2023-03-11T07:52:15.073Z,36000.00
2023-03-11T07:53:15.257Z,35872.00
2023-03-11T07:54:15.456Z,35872.00
2023-03-11T07:55:15.662Z,35328.00
2023-03-11T07:56:15.870Z,32960.00
2023-03-11T07:57:16.764Z,33376.00
2023-03-11T07:58:17.252Z,28800.00
2023-03-11T07:59:17.315Z,23936.00
2023-03-11T08:00:16.753Z,28640.00
2023-03-11T08:01:17.761Z,34912.00
2023-03-11T08:02:17.111Z,36000.00
2023-03-11T08:03:17.206Z,35744.00
2023-03-11T08:04:17.425Z,35840.00
2023-03-11T08:05:18.300Z,36672.00
2023-03-11T08:06:17.847Z,35968.00
2023-03-11T08:07:18.760Z,36128.00
2023-03-11T08:08:18.184Z,37440.00
2023-03-11T08:09:18.372Z,37632.00
2023-03-11T08:10:19.264Z,37504.00
2023-03-11T08:11:19.760Z,40192.00
2023-03-11T08:12:18.951Z,40576.00
2023-03-11T08:13:19.810Z,49824.00
2023-03-11T08:14:20.307Z,60256.00
2023-03-11T08:15:20.312Z,64480.00
2023-03-11T08:16:21.274Z,59040.00
2023-03-11T08:17:19.913Z,56896.00
2023-03-11T08:18:20.813Z,52768.00
2023-03-11T08:19:20.314Z,52576.00
2023-03-11T08:20:20.519Z,48544.00
2023-03-11T08:21:20.758Z,49504.00
2023-03-11T08:22:20.963Z,49920.00
2023-03-11T08:23:21.179Z,47680.00
2023-03-11T08:24:21.366Z,37408.00
2023-03-11T08:25:55.741Z,44224.00
2023-03-11T08:26:23.167Z,47072.00
2023-03-11T08:27:23.812Z,47008.00
2023-03-11T08:28:22.081Z,49728.00
2023-03-11T08:29:22.276Z,51648.00
2023-03-11T08:30:22.475Z,46848.00
2023-03-11T08:31:22.706Z,46016.00
2023-03-11T08:32:23.840Z,45760.00
2023-03-11T08:33:23.014Z,43104.00
2023-03-11T08:34:23.218Z,41632.00
2023-03-11T08:35:23.400Z,39008.00
2023-03-11T08:36:24.353Z,36704.00
2023-03-11T08:37:24.485Z,36416.00
2023-03-11T08:38:25.351Z,37152.00
2023-03-11T08:39:24.859Z,36768.00
2023-03-11T08:40:24.187Z,37024.00
2023-03-11T08:41:25.818Z,28576.00
2023-03-11T08:42:25.350Z,40224.00
2023-03-11T08:43:24.747Z,40192.00
2023-03-11T08:44:25.860Z,40928.00
2023-03-11T08:45:25.363Z,42176.00
2023-03-11T08:46:25.440Z,42752.00
2023-03-11T08:47:25.407Z,41664.00
2023-03-11T08:48:25.584Z,43904.00
2023-03-11T08:49:26.366Z,46912.00
2023-03-11T08:50:27.824Z,47104.00
2023-03-11T08:51:26.080Z,50592.00
2023-03-11T08:52:26.265Z,57248.00
2023-03-11T08:53:27.317Z,59904.00
2023-03-11T08:54:26.867Z,51680.00
2023-03-11T08:55:26.766Z,49088.00
2023-03-11T08:56:26.945Z,77120.00
2023-03-11T08:57:27.864Z,85792.00
2023-03-11T08:58:27.256Z,51360.00
2023-03-11T08:59:27.875Z,78112.00
2023-03-11T09:00:27.893Z,84512.00
2023-03-11T09:01:28.361Z,65824.00
2023-03-11T09:02:28.918Z,52064.00
2023-03-11T09:03:28.271Z,42112.00
2023-03-11T09:04:28.470Z,36160.00
2023-03-11T09:05:28.737Z,32992.00
2023-03-11T09:06:29.360Z,26112.00
2023-03-11T09:07:29.831Z,29568.00
2023-03-11T09:08:31.685Z,28288.00
2023-03-11T09:09:29.432Z,27072.00
2023-03-11T09:10:30.266Z,24544.00
2023-03-11T09:11:29.806Z,5716.00
2023-03-11T09:12:30.016Z,23200.00
2023-03-11T09:13:30.864Z,22304.00
2023-03-11T09:14:30.435Z,21568.00
2023-03-11T09:15:32.278Z,21184.00
2023-03-11T09:16:32.401Z,20928.00
2023-03-11T09:17:34.276Z,20768.00
2023-03-11T09:18:31.228Z,12224.00
2023-03-11T09:19:32.253Z,7288.00
2023-03-11T09:20:31.365Z,7600.00
2023-03-11T09:21:31.544Z,5968.00
2023-03-11T09:22:31.730Z,5652.00
2023-03-11T09:23:32.376Z,5776.00
2023-03-11T09:24:32.132Z,17280.00
2023-03-11T09:25:32.291Z,7392.00
2023-03-11T09:26:33.199Z,19008.00
2023-03-11T09:27:32.569Z,17376.00
2023-03-11T09:28:33.831Z,16640.00
2023-03-11T09:29:32.956Z,14956.00
2023-03-11T09:30:33.159Z,16480.00
2023-03-11T09:31:33.373Z,15100.00
2023-03-11T09:32:34.395Z,11896.00
2023-03-11T09:33:33.689Z,6504.00
2023-03-11T09:34:33.802Z,13296.00
2023-03-11T09:35:35.877Z,16928.00
2023-03-11T09:36:34.877Z,19104.00
2023-03-11T09:37:34.243Z,17568.00
2023-03-11T09:38:34.473Z,18304.00
2023-03-11T09:39:35.376Z,17568.00
2023-03-11T09:40:34.773Z,7068.00
2023-03-11T09:41:38.308Z,6892.00
2023-03-11T09:42:36.167Z,18400.00
2023-03-11T09:43:36.700Z,14364.00
2023-03-11T09:44:36.338Z,15420.00
2023-03-11T09:45:35.598Z,10908.00
2023-03-11T09:46:36.378Z,18432.00
2023-03-11T09:47:35.925Z,18176.00
2023-03-11T09:48:36.142Z,13364.00
2023-03-11T09:49:36.882Z,8408.00
2023-03-11T09:50:37.387Z,8704.00
2023-03-11T09:51:38.922Z,13812.00
2023-03-11T09:52:36.927Z,11008.00
2023-03-11T09:53:37.121Z,9196.00
2023-03-11T09:54:38.848Z,6620.00
2023-03-11T09:55:37.467Z,6620.00
2023-03-11T09:56:37.681Z,6816.00
2023-03-11T09:57:37.857Z,7568.00
2023-03-11T09:58:38.034Z,9496.00
2023-03-11T09:59:38.198Z,16448.00
2023-03-11T10:00:39.845Z,16160.00
2023-03-11T10:01:38.621Z,13600.00
2023-03-11T10:02:39.515Z,14848.00
2023-03-11T10:03:40.020Z,8292.00
2023-03-11T10:04:40.210Z,7868.00
2023-03-11T10:05:39.344Z,11192.00
2023-03-11T10:06:39.576Z,10628.00
2023-03-11T10:07:39.764Z,8256.00
2023-03-11T10:08:39.945Z,8776.00
2023-03-11T10:09:40.112Z,16064.00
2023-03-11T10:10:40.276Z,15904.00
2023-03-11T10:11:42.344Z,11184.00
2023-03-11T10:12:41.847Z,14948.00
2023-03-11T10:13:42.353Z,14872.00
2023-03-11T10:14:40.883Z,14812.00
2023-03-11T10:15:41.895Z,14332.00
2023-03-11T10:16:41.387Z,8088.00
2023-03-11T10:17:42.349Z,6820.00
2023-03-11T10:18:41.631Z,6376.00
2023-03-11T10:19:42.391Z,6096.00
2023-03-11T10:20:42.886Z,5884.00
2023-03-11T10:22:18.247Z,5676.00
2023-03-11T10:22:42.327Z,5608.00
2023-03-11T10:23:42.510Z,5576.00
2023-03-11T10:24:43.383Z,5416.00
2023-03-11T10:25:42.922Z,5628.00
2023-03-11T10:26:43.921Z,5168.00
2023-03-11T10:27:43.891Z,4992.00
2023-03-11T10:28:43.476Z,4876.00
2023-03-11T10:29:45.397Z,5292.00
2023-03-11T10:30:44.572Z,6224.00
2023-03-11T10:31:45.133Z,5152.00
2023-03-11T10:32:44.326Z,4660.00
2023-03-11T10:33:46.602Z,4728.00
2023-03-11T10:34:44.551Z,4820.00
2023-03-11T10:35:44.843Z,4836.00
2023-03-11T10:36:45.887Z,4928.00
2023-03-11T10:37:49.694Z,5028.00
2023-03-11T10:38:46.291Z,5276.00
2023-03-11T10:39:46.393Z,5580.00
2023-03-11T10:40:45.660Z,9772.00
2023-03-11T10:41:45.822Z,6176.00
2023-03-11T10:42:46.016Z,7252.00
2023-03-11T10:43:46.170Z,6252.00
2023-03-11T10:44:46.363Z,5880.00
2023-03-11T10:45:46.577Z,9980.00
2023-03-11T10:46:47.391Z,9312.00
2023-03-11T10:47:46.898Z,9048.00
2023-03-11T10:48:47.071Z,9012.00
2023-03-11T10:49:48.897Z,9004.00
2023-03-11T10:50:47.405Z,9024.00
2023-03-11T10:51:48.404Z,8792.00
2023-03-11T10:52:47.779Z,8768.00
2023-03-11T10:53:48.438Z,9296.00
2023-03-11T10:54:48.893Z,9508.00
2023-03-11T10:55:48.275Z,9820.00
2023-03-11T10:56:48.463Z,10000.00
2023-03-11T10:57:48.639Z,10036.00
2023-03-11T10:58:49.439Z,10220.00
2023-03-11T10:59:50.397Z,9960.00
2023-03-11T11:00:49.198Z,10412.00
2023-03-11T11:01:49.895Z,10244.00
2023-03-11T11:02:49.400Z,9532.00
2023-03-11T11:03:50.492Z,10172.00
2023-03-11T11:04:50.445Z,10428.00
2023-03-11T11:05:49.958Z,8904.00
2023-03-11T11:06:50.141Z,7832.00
2023-03-11T11:07:51.760Z,7056.00
2023-03-11T11:08:51.438Z,6440.00
2023-03-11T11:09:52.914Z,6120.00
2023-03-11T11:10:51.398Z,5784.00
2023-03-11T11:11:51.906Z,5508.00
2023-03-11T11:12:51.903Z,5720.00
2023-03-11T11:13:51.406Z,5484.00
2023-03-11T11:14:51.560Z,5868.00
2023-03-11T11:15:51.748Z,6248.00
2023-03-11T11:16:52.954Z,5544.00
2023-03-11T11:17:52.135Z,5592.00
2023-03-11T11:18:52.942Z,5524.00
2023-03-11T11:19:53.407Z,5464.00
2023-03-11T11:20:54.346Z,5352.00
2023-03-11T11:21:55.402Z,5244.00
2023-03-11T11:22:54.410Z,5180.00
2023-03-11T11:23:54.075Z,6576.00
2023-03-11T11:24:54.491Z,6560.00
2023-03-11T11:25:53.537Z,6296.00
2023-03-11T11:26:53.693Z,6608.00
2023-03-11T11:27:53.899Z,6352.00
2023-03-11T11:28:54.081Z,6392.00
2023-03-11T11:29:54.228Z,6392.00
2023-03-11T11:30:55.456Z,6160.00
2023-03-11T11:31:55.267Z,5852.00
2023-03-11T11:32:54.844Z,6072.00
2023-03-11T11:33:54.980Z,6024.00
2023-03-11T11:34:55.943Z,6144.00
2023-03-11T11:35:55.964Z,6724.00
2023-03-11T11:36:55.903Z,6744.00
2023-03-11T11:37:55.546Z,6896.00
2023-03-11T11:38:55.676Z,7252.00
2023-03-11T11:39:55.926Z,7196.00
2023-03-11T11:40:56.955Z,7080.00
2023-03-11T11:41:56.950Z,6600.00
2023-03-11T11:42:56.338Z,6576.00
2023-03-11T11:43:56.566Z,6484.00
2023-03-11T11:44:56.713Z,6848.00
2023-03-11T11:45:56.906Z,6972.00
2023-03-11T11:46:57.955Z,7396.00
2023-03-11T11:47:57.314Z,7820.00
2023-03-11T11:48:57.450Z,7764.00
2023-03-11T11:49:57.576Z,8244.00
2023-03-11T11:50:59.404Z,8536.00
2023-03-11T11:51:57.888Z,8308.00
2023-03-11T11:52:58.080Z,8032.00
2023-03-11T11:53:58.244Z,7264.00
2023-03-11T11:54:58.953Z,6776.00
2023-03-11T11:55:58.591Z,6924.00
2023-03-11T11:56:58.768Z,6628.00
2023-03-11T11:57:58.915Z,6932.00
2023-03-11T11:58:59.172Z,6960.00
2023-03-11T12:00:00.314Z,6876.00
2023-03-11T12:00:59.501Z,6940.00
2023-03-11T12:02:00.411Z,6224.00
2023-03-11T12:02:59.783Z,6336.00
2023-03-11T12:04:00.832Z,6400.00
2023-03-11T12:05:00.911Z,7412.00
2023-03-11T12:06:00.414Z,7728.00
2023-03-11T12:07:03.770Z,7192.00
2023-03-11T12:08:00.727Z,7856.00
2023-03-11T12:09:01.905Z,8184.00
2023-03-11T12:10:16.245Z,7720.00
2023-03-11T12:11:03.173Z,7616.00
2023-03-11T12:12:01.458Z,7172.00
2023-03-11T12:13:01.498Z,6572.00
2023-03-11T12:14:02.458Z,6636.00
2023-03-11T12:15:01.860Z,6672.00
2023-03-11T12:16:02.130Z,7628.00
2023-03-11T12:17:04.152Z,6828.00
2023-03-11T12:18:04.412Z,7204.00
2023-03-11T12:19:03.927Z,7220.00
2023-03-11T12:20:02.825Z,7988.00
2023-03-11T12:21:04.923Z,7584.00
2023-03-11T12:22:03.965Z,7904.00
2023-03-11T12:23:03.987Z,7996.00
2023-03-11T12:24:03.514Z,8108.00
2023-03-11T12:25:04.461Z,8228.00
2023-03-11T12:26:04.779Z,8124.00
2023-03-11T12:27:05.412Z,8256.00
2023-03-11T12:28:04.198Z,7008.00
2023-03-11T12:29:04.408Z,6684.00
2023-03-11T12:30:05.477Z,6652.00
2023-03-11T12:31:04.674Z,7220.00
2023-03-11T12:32:04.871Z,6936.00
2023-03-11T12:33:05.966Z,7176.00
2023-03-11T12:34:05.977Z,7708.00
2023-03-11T12:35:05.436Z,7948.00